Погода Новая Ржавкана 2 недели

Смоленская область, Россия

23 мая-04 июня
  • 23мая
    Сегодня
    +9°
    +24°
    Практически безоблачно
    ВремяПогодаТемператураВлажностьДавлениеВетер, м/сВероятность осадков
    00:00Ясно и безоблачно+14°C92 %749 мм2.9 м/с2 %
    03:00Ясно и безоблачно+13°C93 %750 мм2.7 м/с2 %
    06:00Ясно и безоблачно+13°C78 %751 мм4.4 м/с2 %
    09:00Ясно и безоблачно+18°C64 %752 мм4.7 м/с2 %
    12:00Ясно и безоблачно+22°C56 %752 мм5.4 м/с2 %
    15:00Практически безоблачно+23°C49 %752 мм5.5 м/с3 %
    18:00Ясно и безоблачно+21°C49 %752 мм5.8 м/с3 %
    21:00Ясно и безоблачно+17°C59 %753 мм4.7 м/с2 %
  • 24мая
    Пятница
    +8°
    +21°
    Ясно и безоблачно
    ВремяПогодаТемператураВлажностьДавлениеВетер, м/сВероятность осадков
    00:00Ясно и безоблачно+13°C60 %754 мм4.6 м/с2 %
    03:00Ясно и безоблачно+11°C62 %755 мм4.4 м/с2 %
    06:00Ясно и безоблачно+10°C62 %756 мм4.5 м/с2 %
    09:00Ясно и безоблачно+15°C55 %756 мм4.6 м/с2 %
    12:00Ясно и безоблачно+19°C45 %756 мм4.8 м/с2 %
    15:00Ясно и безоблачно+21°C42 %756 мм4.6 м/с2 %
    18:00Ясно и безоблачно+20°C44 %755 мм4.4 м/с2 %
    21:00Ясно и безоблачно+15°C62 %755 мм3.2 м/с2 %
  • 25мая
    Суббота
    +8°
    +22°
    Ясно и безоблачно
    ВремяПогодаТемператураВлажностьДавлениеВетер, м/сВероятность осадков
    00:00Ясно и безоблачно+11°C66 %755 мм3.4 м/с2 %
    03:00Ясно и безоблачно+10°C67 %755 мм3.0 м/с2 %
    06:00Ясно и безоблачно+9°C66 %755 мм2.9 м/с2 %
    09:00Ясно и безоблачно+16°C53 %755 мм3.1 м/с2 %
    12:00Ясно и безоблачно+21°C41 %755 мм3.4 м/с2 %
    15:00Ясно и безоблачно+22°C39 %755 мм3.0 м/с2 %
    18:00Ясно и безоблачно+21°C38 %753 мм3.1 м/с2 %
    21:00Ясно и безоблачно+15°C63 %753 мм2.1 м/с2 %
  • 26мая
    Воскресенье
    +9°
    +23°
    Облачно с прояснениями
    ВремяПогодаТемператураВлажностьДавлениеВетер, м/сВероятность осадков
    00:00Ясно и безоблачно+11°C78 %753 мм3.0 м/с2 %
    03:00Ясно и безоблачно+8°C87 %753 мм2.4 м/с2 %
    06:00Облачно с прояснениями+10°C83 %753 мм1.7 м/с2 %
    09:00Облачно с прояснениями+17°C64 %754 мм0.7 м/с2 %
    12:00Небольшая облачность+22°C41 %754 мм1.3 м/с2 %
    15:00Облачно с прояснениями+23°C40 %753 мм0.6 м/с4 %
    18:00Ясно и безоблачно+22°C41 %752 мм1.3 м/с2 %
    21:00Ясно и безоблачно+18°C59 %753 мм1.9 м/с2 %
Мы используем cookies
Соглашаюсь